CWIL

Hat Island  Airport

Canada

CWIL 250100Z AUTO 32011KT ////SM FEW001 SCT022 OVC050 M14/M15 A2960

Observed Flight Rules
Nov-25 @ 01:00 UTC (an hour ago)
Unavailable
Wind Clouds
320° at 11 knots
  • Few at 100' AGL
  • Scattered at 2,200' AGL
  • Overcast at 5,000' AGL
Temperatures Readings
Current -14°C / 7°F
Dewpoint -15°C / 5°F
Humidity 92%
Altimeter 29.6" Hg
Pressure 1002 hPa
Elevation 36
Observed Flight Rules
Nov-25 @ 01:00 UTC
(an hour ago)
UNK
Wind
320° at 11 knots
Clouds
  • Few at 100' AGL
  • Scattered at 2,200' AGL
  • Overcast at 5,000' AGL
Temperature Dewpoint
-14°C / 7°F -15°C / 5°F
Humidity Altimeter Pressure
92% 29.6" Hg 1002 hPa